createdAt,value
2022-11-13T00:00:17.632Z,58.24
2022-11-13T00:01:17.617Z,54.71
2022-11-13T00:02:17.683Z,54.53
2022-11-13T00:03:17.618Z,54.55
2022-11-13T00:04:17.595Z,59.29
2022-11-13T00:05:17.599Z,56.77
2022-11-13T00:06:17.577Z,50.94
2022-11-13T00:07:17.659Z,58.98
2022-11-13T00:08:17.670Z,55.99
2022-11-13T00:09:17.553Z,57.30
2022-11-13T00:10:17.552Z,56.00
2022-11-13T00:11:17.547Z,55.49
2022-11-13T00:12:17.556Z,52.69
2022-11-13T00:13:17.522Z,52.85
2022-11-13T00:14:17.518Z,55.02
2022-11-13T00:15:17.519Z,50.52
2022-11-13T00:16:17.514Z,59.38
2022-11-13T00:17:17.503Z,54.38
2022-11-13T00:18:17.485Z,52.86
2022-11-13T00:19:17.484Z,54.21
2022-11-13T00:20:17.482Z,48.17
2022-11-13T00:21:17.479Z,48.42
2022-11-13T00:22:17.459Z,51.84
2022-11-13T00:23:17.447Z,51.82
2022-11-13T00:24:17.533Z,52.82
2022-11-13T00:25:17.432Z,55.94
2022-11-13T00:26:17.417Z,57.14
2022-11-13T00:27:17.418Z,56.45
2022-11-13T00:30:06.924Z,51.59
2022-11-13T00:31:06.917Z,46.89
2022-11-13T00:32:08.025Z,52.45
2022-11-13T00:33:08.003Z,57.25
2022-11-13T00:34:33.604Z,61.37
2022-11-13T00:35:09.978Z,58.73
2022-11-13T00:36:07.976Z,56.93
2022-11-13T00:37:07.977Z,56.26
2022-11-13T00:38:07.964Z,55.29
2022-11-13T00:39:07.943Z,56.62
2022-11-13T00:40:08.034Z,47.16
2022-11-13T00:41:07.925Z,59.49
2022-11-13T00:42:07.922Z,56.30
2022-11-13T00:43:07.922Z,52.45
2022-11-13T00:44:07.901Z,50.76
2022-11-13T00:45:07.889Z,57.17
2022-11-13T00:46:07.892Z,45.04
2022-11-13T00:47:07.875Z,54.75
2022-11-13T00:48:07.892Z,52.66
2022-11-13T00:49:07.864Z,58.01
2022-11-13T00:50:07.851Z,53.03
2022-11-13T00:51:07.846Z,55.50
2022-11-13T00:52:07.836Z,57.57
2022-11-13T00:53:11.556Z,59.75
2022-11-13T00:54:08.824Z,50.70
2022-11-13T00:55:07.821Z,47.74
2022-11-13T00:56:07.901Z,50.23
2022-11-13T00:57:07.798Z,55.16
2022-11-13T00:58:07.806Z,59.57
2022-11-13T00:59:07.801Z,58.26
2022-11-13T01:00:07.781Z,52.95
2022-11-13T01:01:07.786Z,55.88
2022-11-13T01:02:07.799Z,49.59
2022-11-13T01:03:07.764Z,54.17
2022-11-13T01:04:07.763Z,59.79
2022-11-13T01:05:07.743Z,56.53
2022-11-13T01:06:07.790Z,54.07
2022-11-13T01:07:07.850Z,52.15
2022-11-13T01:08:07.727Z,54.95
2022-11-13T01:09:07.724Z,56.99
2022-11-13T01:10:07.703Z,51.28
2022-11-13T01:11:07.688Z,54.77
2022-11-13T01:12:08.463Z,54.68
2022-11-13T01:13:07.721Z,55.35
2022-11-13T01:14:07.670Z,61.32
2022-11-13T01:15:07.673Z,61.42
2022-11-13T01:16:07.651Z,53.08
2022-11-13T01:17:07.649Z,59.51
2022-11-13T01:18:07.635Z,58.47
2022-11-13T01:19:07.972Z,48.71
2022-11-13T01:20:08.370Z,52.63
2022-11-13T01:21:07.616Z,52.45
2022-11-13T01:22:07.610Z,54.19
2022-11-13T01:23:07.595Z,58.05
2022-11-13T01:24:07.584Z,46.32
2022-11-13T01:25:07.585Z,56.02
2022-11-13T01:26:07.568Z,59.86
2022-11-13T01:27:07.573Z,58.91
2022-11-13T01:28:08.388Z,51.66
2022-11-13T01:29:07.549Z,47.39
2022-11-13T01:30:07.544Z,50.80
2022-11-13T01:31:07.532Z,47.90
2022-11-13T01:32:07.528Z,58.01
2022-11-13T01:33:07.524Z,53.77
2022-11-13T01:34:07.508Z,53.96
2022-11-13T01:35:07.514Z,52.45
2022-11-13T01:36:07.502Z,55.18
2022-11-13T01:37:07.489Z,62.04
2022-11-13T01:38:08.293Z,52.63
2022-11-13T01:39:07.467Z,56.82
2022-11-13T01:40:07.459Z,52.42
2022-11-13T01:41:07.449Z,57.41
2022-11-13T01:42:07.455Z,55.56
2022-11-13T01:43:07.435Z,55.78
2022-11-13T01:44:07.521Z,46.90
2022-11-13T01:45:07.421Z,47.13
2022-11-13T01:46:07.408Z,41.96
2022-11-13T01:47:07.409Z,42.91
2022-11-13T01:48:07.416Z,53.72
2022-11-13T01:49:07.398Z,58.65
2022-11-13T01:50:07.384Z,54.98
2022-11-13T01:51:07.371Z,52.11
2022-11-13T01:52:07.371Z,57.86
2022-11-13T01:53:08.360Z,50.36
2022-11-13T01:54:07.359Z,52.42
2022-11-13T01:55:07.348Z,48.83
2022-11-13T01:56:07.334Z,52.02
2022-11-13T01:57:07.326Z,46.26
2022-11-13T01:58:07.333Z,46.32
2022-11-13T01:59:07.314Z,56.88
2022-11-13T02:00:07.413Z,56.83
2022-11-13T02:01:07.881Z,48.37
2022-11-13T02:02:07.313Z,57.10
2022-11-13T02:03:07.295Z,54.48
2022-11-13T02:04:07.275Z,53.57
2022-11-13T02:05:07.272Z,48.71
2022-11-13T02:06:07.273Z,51.24
2022-11-13T02:07:07.273Z,55.04
2022-11-13T02:08:07.249Z,53.87
2022-11-13T02:09:07.235Z,48.80
2022-11-13T02:10:07.230Z,55.71
2022-11-13T02:11:07.215Z,53.84
2022-11-13T02:12:07.223Z,58.54
2022-11-13T02:13:07.210Z,49.69
2022-11-13T02:14:07.192Z,48.93
2022-11-13T02:15:07.187Z,55.24
2022-11-13T02:16:07.274Z,55.12
2022-11-13T02:17:07.170Z,50.90
2022-11-13T02:18:07.167Z,47.36
2022-11-13T02:19:07.881Z,48.32
2022-11-13T02:20:07.149Z,57.04
2022-11-13T02:21:07.162Z,56.63
2022-11-13T02:22:07.131Z,50.98
2022-11-13T02:23:07.130Z,42.82
2022-11-13T02:24:07.113Z,55.70
2022-11-13T02:25:07.112Z,47.24
2022-11-13T02:26:07.096Z,43.81
2022-11-13T02:27:07.089Z,42.81
2022-11-13T02:28:07.078Z,53.35
2022-11-13T02:29:07.079Z,58.49
2022-11-13T02:30:07.550Z,58.83
2022-11-13T02:31:08.065Z,42.79
2022-11-13T02:32:07.909Z,49.37
2022-11-13T02:33:07.047Z,45.40
2022-11-13T02:34:07.038Z,49.62
2022-11-13T02:35:07.029Z,48.23
2022-11-13T02:36:07.042Z,46.66
2022-11-13T02:37:07.012Z,53.02
2022-11-13T02:38:07.002Z,53.76
2022-11-13T02:39:06.999Z,48.80
2022-11-13T02:40:07.012Z,48.80
2022-11-13T02:41:06.978Z,41.40
2022-11-13T02:42:06.975Z,54.51
2022-11-13T02:43:06.968Z,44.30
2022-11-13T02:44:06.967Z,49.77
2022-11-13T02:45:06.956Z,49.05
2022-11-13T02:46:06.943Z,57.34
2022-11-13T02:47:06.931Z,57.17
2022-11-13T02:48:07.028Z,54.57
2022-11-13T02:49:06.912Z,45.70
2022-11-13T02:50:06.948Z,45.69
2022-11-13T02:51:06.912Z,56.63
2022-11-13T02:52:06.889Z,53.31
2022-11-13T02:53:06.876Z,48.08
2022-11-13T02:54:06.867Z,47.45
2022-11-13T02:55:06.862Z,55.89
2022-11-13T02:56:06.877Z,57.83
2022-11-13T02:57:06.854Z,55.78
2022-11-13T02:58:06.838Z,55.40
2022-11-13T02:59:06.832Z,54.67
2022-11-13T03:00:12.248Z,52.08
2022-11-13T03:01:08.815Z,53.03
2022-11-13T03:02:06.869Z,54.27
2022-11-13T03:03:06.799Z,58.51
2022-11-13T03:04:06.893Z,57.41
2022-11-13T03:05:14.363Z,50.91
2022-11-13T03:06:08.775Z,52.73
2022-11-13T03:07:06.840Z,48.68
2022-11-13T03:08:06.818Z,58.02
2022-11-13T03:09:07.310Z,55.33
2022-11-13T03:10:06.761Z,53.80
2022-11-13T03:11:06.747Z,53.92
2022-11-13T03:12:06.742Z,43.27
2022-11-13T03:13:06.740Z,42.65
2022-11-13T03:14:06.720Z,53.63
2022-11-13T03:15:06.713Z,60.47
2022-11-13T03:16:06.698Z,56.72
2022-11-13T03:17:07.697Z,58.11
2022-11-13T03:18:06.686Z,53.39
2022-11-13T03:19:07.148Z,46.40
2022-11-13T03:20:06.767Z,51.65
2022-11-13T03:21:06.667Z,50.49
2022-11-13T03:22:06.683Z,43.57
2022-11-13T03:23:06.646Z,54.89
2022-11-13T03:24:06.697Z,47.71
2022-11-13T03:25:10.387Z,55.12
2022-11-13T03:26:08.629Z,57.79
2022-11-13T03:27:06.630Z,50.66
2022-11-13T03:28:06.603Z,48.19
2022-11-13T03:29:06.597Z,52.50
2022-11-13T03:30:06.590Z,54.64
2022-11-13T03:31:06.577Z,50.73
2022-11-13T03:32:06.576Z,52.90
2022-11-13T03:33:06.573Z,46.41
2022-11-13T03:34:06.558Z,52.18
2022-11-13T03:35:07.314Z,52.56
2022-11-13T03:36:06.636Z,48.11
2022-11-13T03:37:07.390Z,46.58
2022-11-13T03:38:06.532Z,49.21
2022-11-13T03:39:06.521Z,51.46
2022-11-13T03:40:06.503Z,46.80
2022-11-13T03:41:06.512Z,50.00
2022-11-13T03:42:06.503Z,52.85
2022-11-13T03:43:06.490Z,45.01
2022-11-13T03:44:06.483Z,46.22
2022-11-13T03:45:06.468Z,48.59
2022-11-13T03:46:06.470Z,45.46
2022-11-13T03:47:06.452Z,51.73
2022-11-13T03:48:06.461Z,56.38
2022-11-13T03:49:06.437Z,51.78
2022-11-13T03:50:06.435Z,48.80
2022-11-13T03:51:06.423Z,53.26
2022-11-13T03:52:06.511Z,57.19
2022-11-13T03:53:06.422Z,53.48
2022-11-13T03:54:06.405Z,52.79
2022-11-13T03:55:06.394Z,53.52
2022-11-13T03:56:06.386Z,57.70
2022-11-13T03:57:06.377Z,50.46
2022-11-13T03:58:06.388Z,51.07
2022-11-13T03:59:06.366Z,44.81
2022-11-13T04:00:06.357Z,49.79
2022-11-13T04:01:06.354Z,49.55
2022-11-13T04:02:06.424Z,52.39
2022-11-13T04:03:06.342Z,47.30
2022-11-13T04:04:06.333Z,51.79
2022-11-13T04:05:06.330Z,55.10
2022-11-13T04:06:06.312Z,48.35
2022-11-13T04:07:06.354Z,46.08
2022-11-13T04:08:06.393Z,54.86
2022-11-13T04:09:06.298Z,54.41
2022-11-13T04:10:06.820Z,44.44
2022-11-13T04:11:06.283Z,57.82
2022-11-13T04:12:06.265Z,53.94
2022-11-13T04:13:06.298Z,59.41
2022-11-13T04:14:06.256Z,49.27
2022-11-13T04:15:06.251Z,52.22
2022-11-13T04:16:06.231Z,53.29
2022-11-13T04:17:06.227Z,52.30
2022-11-13T04:18:06.218Z,53.69
2022-11-13T04:19:06.217Z,53.09
2022-11-13T04:20:06.224Z,47.87
2022-11-13T04:21:06.208Z,51.50
2022-11-13T04:22:06.223Z,50.03
2022-11-13T04:23:06.221Z,54.04
2022-11-13T04:24:06.278Z,47.53
2022-11-13T04:25:06.189Z,49.62
2022-11-13T04:26:06.175Z,51.46
2022-11-13T04:27:06.150Z,51.34
2022-11-13T04:28:06.147Z,54.86
2022-11-13T04:29:06.134Z,57.02
2022-11-13T04:30:06.138Z,51.66
2022-11-13T04:31:06.110Z,50.11
2022-11-13T04:32:06.120Z,56.00
2022-11-13T04:33:06.103Z,45.83
2022-11-13T04:34:06.101Z,55.02
2022-11-13T04:35:06.093Z,58.39
2022-11-13T04:36:06.085Z,52.63
2022-11-13T04:37:06.080Z,55.92
2022-11-13T04:38:06.065Z,54.71
2022-11-13T04:39:06.052Z,51.33
2022-11-13T04:40:06.154Z,51.53
2022-11-13T04:41:06.046Z,56.29
2022-11-13T04:42:06.027Z,53.85
2022-11-13T04:43:06.038Z,55.60
2022-11-13T04:44:06.041Z,53.04
2022-11-13T04:45:06.008Z,54.45
2022-11-13T04:46:06.006Z,53.48
2022-11-13T04:47:05.988Z,53.61
2022-11-13T04:48:05.992Z,52.96
2022-11-13T04:49:05.987Z,52.45
2022-11-13T04:50:05.984Z,51.67
2022-11-13T04:51:05.973Z,48.05
2022-11-13T04:52:05.956Z,54.03
2022-11-13T04:53:05.948Z,56.94
2022-11-13T04:54:05.937Z,53.60
2022-11-13T04:55:05.926Z,46.81
2022-11-13T04:56:06.998Z,51.70
2022-11-13T04:57:05.922Z,53.83
2022-11-13T04:58:05.950Z,50.10
2022-11-13T04:59:05.911Z,52.57
2022-11-13T05:00:05.900Z,54.74
2022-11-13T05:01:05.911Z,59.55
2022-11-13T05:02:05.914Z,61.69
2022-11-13T05:03:05.874Z,55.67
2022-11-13T05:04:05.873Z,50.45
2022-11-13T05:05:05.859Z,54.75
2022-11-13T05:06:05.853Z,54.03
2022-11-13T05:07:06.029Z,56.62
2022-11-13T05:08:05.827Z,58.19
2022-11-13T05:09:05.832Z,54.27
2022-11-13T05:10:05.838Z,47.89
2022-11-13T05:11:05.815Z,61.09
2022-11-13T05:12:05.923Z,46.97
2022-11-13T05:13:05.796Z,51.27
2022-11-13T05:14:05.782Z,50.59
2022-11-13T05:15:05.778Z,47.97
2022-11-13T05:16:05.780Z,58.39
2022-11-13T05:17:05.765Z,56.06
2022-11-13T05:18:05.792Z,53.66
2022-11-13T05:19:05.754Z,55.17
2022-11-13T05:20:06.331Z,51.10
2022-11-13T05:21:05.728Z,50.05
2022-11-13T05:22:05.724Z,53.56
2022-11-13T05:23:05.720Z,48.02
2022-11-13T05:24:05.742Z,51.06
2022-11-13T05:25:05.720Z,58.60
2022-11-13T05:26:05.701Z,58.08
2022-11-13T05:27:05.703Z,55.17
2022-11-13T05:28:05.777Z,55.54
2022-11-13T05:29:05.668Z,53.10
2022-11-13T05:30:05.689Z,52.28
2022-11-13T05:31:05.659Z,57.51
2022-11-13T05:32:05.653Z,59.41
2022-11-13T05:33:05.661Z,56.53
2022-11-13T05:34:06.256Z,50.27
2022-11-13T05:35:06.632Z,58.88
2022-11-13T05:36:05.613Z,61.62
2022-11-13T05:37:05.605Z,45.13
2022-11-13T05:38:05.596Z,42.32
2022-11-13T05:39:05.597Z,52.02
2022-11-13T05:40:05.586Z,59.20
2022-11-13T05:41:05.591Z,56.54
2022-11-13T05:42:05.576Z,49.05
2022-11-13T05:43:05.563Z,60.72
2022-11-13T05:44:05.656Z,54.06
2022-11-13T05:45:05.552Z,52.84
2022-11-13T05:46:05.537Z,57.16
2022-11-13T05:47:05.533Z,56.30
2022-11-13T05:48:05.523Z,58.67
2022-11-13T05:49:05.511Z,53.25
2022-11-13T05:50:05.517Z,57.36
2022-11-13T05:51:05.494Z,59.28
2022-11-13T05:52:05.496Z,50.14
2022-11-13T05:53:05.477Z,53.98
2022-11-13T05:54:05.477Z,51.17
2022-11-13T05:55:05.474Z,44.89
2022-11-13T05:56:05.458Z,57.67
2022-11-13T05:57:05.462Z,50.54
2022-11-13T05:58:05.447Z,53.61
2022-11-13T05:59:05.448Z,55.68
2022-11-13T06:00:05.533Z,51.49
2022-11-13T06:01:05.419Z,47.13
2022-11-13T06:02:05.446Z,56.63
2022-11-13T06:03:07.331Z,46.36
2022-11-13T06:04:05.410Z,53.30
2022-11-13T06:05:05.402Z,45.04
2022-11-13T06:06:05.380Z,52.81
2022-11-13T06:07:05.420Z,48.85
2022-11-13T06:08:05.368Z,53.37
2022-11-13T06:09:05.365Z,50.11
2022-11-13T06:10:05.368Z,51.88
2022-11-13T06:11:05.346Z,57.91
2022-11-13T06:12:05.337Z,61.45
2022-11-13T06:13:05.341Z,53.90
2022-11-13T06:14:05.328Z,53.28
2022-11-13T06:15:06.325Z,54.78
2022-11-13T06:16:05.403Z,54.77
2022-11-13T06:17:05.300Z,52.33
2022-11-13T06:18:05.309Z,57.52
2022-11-13T06:19:05.279Z,55.54
2022-11-13T06:20:05.273Z,54.65
2022-11-13T06:21:05.285Z,58.46
2022-11-13T06:22:05.256Z,55.16
2022-11-13T06:23:05.238Z,54.55
2022-11-13T06:24:05.834Z,52.95
2022-11-13T06:25:05.236Z,54.74
2022-11-13T06:26:05.243Z,52.77
2022-11-13T06:27:05.232Z,50.33
2022-11-13T06:28:05.215Z,50.81
2022-11-13T06:29:05.212Z,53.06
2022-11-13T06:30:05.199Z,52.30
2022-11-13T06:31:05.202Z,50.41
2022-11-13T06:32:05.288Z,43.36
2022-11-13T06:33:05.174Z,51.76
2022-11-13T06:34:05.188Z,48.80
2022-11-13T06:35:05.161Z,57.06
2022-11-13T06:36:05.240Z,50.32
2022-11-13T06:37:05.404Z,48.87
2022-11-13T06:38:05.566Z,54.86
2022-11-13T06:39:05.190Z,48.18
2022-11-13T06:40:05.132Z,51.21
2022-11-13T06:41:05.121Z,55.94
2022-11-13T06:42:05.106Z,55.41
2022-11-13T06:43:05.097Z,52.43
2022-11-13T06:44:05.095Z,50.67
2022-11-13T06:45:05.082Z,51.80
2022-11-13T06:46:05.078Z,53.47
2022-11-13T06:47:05.062Z,58.24
2022-11-13T06:48:05.160Z,59.65
2022-11-13T06:49:05.068Z,60.00
2022-11-13T06:50:05.039Z,57.53
2022-11-13T06:51:05.035Z,56.79
2022-11-13T06:52:05.026Z,59.78
2022-11-13T06:53:05.025Z,53.13
2022-11-13T06:54:05.015Z,55.14
2022-11-13T06:55:05.013Z,54.33
2022-11-13T06:56:05.000Z,52.29
2022-11-13T06:57:04.985Z,56.13
2022-11-13T06:58:04.985Z,49.38
2022-11-13T06:59:08.319Z,61.70
2022-11-13T07:00:05.964Z,57.26
2022-11-13T07:01:04.997Z,57.11
2022-11-13T07:02:04.948Z,55.24
2022-11-13T07:03:04.954Z,54.02
2022-11-13T07:04:05.034Z,51.95
2022-11-13T07:05:04.926Z,57.02
2022-11-13T07:06:05.943Z,44.25
2022-11-13T07:07:04.929Z,54.92
2022-11-13T07:08:04.925Z,57.61
2022-11-13T07:09:05.904Z,55.21
2022-11-13T07:10:04.890Z,53.01
2022-11-13T07:11:04.885Z,52.23
2022-11-13T07:12:04.873Z,50.66
2022-11-13T07:13:04.870Z,56.51
2022-11-13T07:14:04.862Z,57.56
2022-11-13T07:15:04.854Z,52.19
2022-11-13T07:16:15.895Z,54.04
2022-11-13T07:17:10.663Z,55.76
2022-11-13T07:18:05.834Z,57.71
2022-11-13T07:19:04.826Z,52.10
2022-11-13T07:20:04.915Z,53.07
2022-11-13T07:21:04.814Z,57.91
2022-11-13T07:22:04.810Z,62.18
2022-11-13T07:23:04.786Z,58.46
2022-11-13T07:24:04.786Z,58.72
2022-11-13T07:25:04.781Z,54.25
2022-11-13T07:26:04.772Z,61.08
2022-11-13T07:27:04.762Z,59.47
2022-11-13T07:28:04.752Z,55.83
2022-11-13T07:29:04.742Z,56.36
2022-11-13T07:30:04.738Z,59.22
2022-11-13T07:31:04.734Z,63.25
2022-11-13T07:32:04.722Z,57.82
2022-11-13T07:33:04.717Z,54.50
2022-11-13T07:34:04.713Z,55.41
2022-11-13T07:35:04.698Z,56.84
2022-11-13T07:36:04.821Z,57.53
2022-11-13T07:37:04.689Z,56.49
2022-11-13T07:38:04.678Z,55.57
2022-11-13T07:39:04.663Z,61.47
2022-11-13T07:40:04.661Z,54.38
2022-11-13T07:41:04.650Z,59.30
2022-11-13T07:42:04.643Z,55.22
2022-11-13T07:43:04.670Z,62.79
2022-11-13T07:44:08.941Z,67.09
2022-11-13T07:45:05.624Z,54.63
2022-11-13T07:46:04.616Z,57.73
2022-11-13T07:47:04.603Z,53.45
2022-11-13T07:48:04.597Z,58.89
2022-11-13T07:49:04.601Z,60.56
2022-11-13T07:50:10.508Z,62.48
2022-11-13T07:51:06.573Z,54.85
2022-11-13T07:52:04.575Z,59.71
2022-11-13T07:53:04.553Z,61.17
2022-11-13T07:54:04.549Z,60.57
2022-11-13T07:55:04.545Z,61.37
2022-11-13T07:56:04.532Z,63.02
2022-11-13T07:57:04.531Z,57.86
2022-11-13T07:58:04.517Z,60.89
2022-11-13T07:59:04.530Z,60.15
2022-11-13T08:00:04.506Z,57.99
2022-11-13T08:01:05.436Z,61.14
2022-11-13T08:02:04.482Z,59.49
2022-11-13T08:03:04.480Z,63.84
2022-11-13T08:04:04.482Z,63.82
2022-11-13T08:05:04.477Z,59.47
2022-11-13T08:06:04.451Z,62.38
2022-11-13T08:07:06.431Z,56.82
2022-11-13T08:08:04.532Z,59.57
2022-11-13T08:09:04.435Z,59.02
2022-11-13T08:10:04.440Z,61.34
2022-11-13T08:11:05.927Z,59.62
2022-11-13T08:12:04.404Z,59.29
2022-11-13T08:13:04.401Z,59.44
2022-11-13T08:14:04.387Z,59.54
2022-11-13T08:15:07.143Z,58.24
2022-11-13T08:16:04.368Z,60.14
2022-11-13T08:17:04.366Z,62.74
2022-11-13T08:18:04.366Z,61.98
2022-11-13T08:19:04.350Z,63.65
2022-11-13T08:20:04.338Z,66.04
2022-11-13T08:21:04.337Z,63.21
2022-11-13T08:22:04.324Z,58.55
2022-11-13T08:23:04.326Z,55.41
2022-11-13T08:24:04.402Z,59.54
2022-11-13T08:25:04.298Z,61.81
2022-11-13T08:26:04.317Z,59.79
2022-11-13T08:27:04.286Z,59.01
2022-11-13T08:28:08.740Z,59.63
2022-11-13T08:29:05.264Z,60.96
2022-11-13T08:30:04.260Z,59.92
2022-11-13T08:31:04.287Z,62.87
2022-11-13T08:32:04.241Z,59.11
2022-11-13T08:33:04.874Z,58.24
2022-11-13T08:34:04.231Z,60.51
2022-11-13T08:35:04.228Z,64.86
2022-11-13T08:36:04.227Z,63.22
2022-11-13T08:37:04.216Z,60.14
2022-11-13T08:38:04.217Z,62.29
2022-11-13T08:39:04.204Z,60.57
2022-11-13T08:40:04.274Z,58.35
2022-11-13T08:41:08.688Z,59.17
2022-11-13T08:42:06.163Z,60.82
2022-11-13T08:43:04.881Z,62.21
2022-11-13T08:44:04.169Z,64.28
2022-11-13T08:45:04.148Z,61.16
2022-11-13T08:46:04.140Z,62.48
2022-11-13T08:47:04.147Z,62.16
2022-11-13T08:48:04.127Z,62.86
2022-11-13T08:49:04.127Z,63.47
2022-11-13T08:50:04.867Z,62.55
2022-11-13T08:51:04.097Z,63.99
2022-11-13T08:52:04.114Z,63.05
2022-11-13T08:53:04.101Z,63.38
2022-11-13T08:54:04.083Z,61.99
2022-11-13T08:55:04.091Z,63.88
2022-11-13T08:56:04.160Z,63.81
2022-11-13T08:57:06.262Z,62.71
2022-11-13T08:58:05.057Z,63.90
2022-11-13T08:59:05.034Z,65.52
2022-11-13T09:00:04.082Z,63.68
2022-11-13T09:01:04.030Z,64.10
2022-11-13T09:02:04.860Z,62.70
2022-11-13T09:03:04.008Z,61.66
2022-11-13T09:04:04.056Z,62.00
2022-11-13T09:05:03.995Z,63.09
2022-11-13T09:06:03.996Z,61.26
2022-11-13T09:07:04.010Z,61.49
2022-11-13T09:08:03.969Z,62.74
2022-11-13T09:09:03.968Z,61.66
2022-11-13T09:10:03.992Z,60.47
2022-11-13T09:11:03.954Z,59.23
2022-11-13T09:12:04.044Z,59.98
2022-11-13T09:13:03.934Z,61.04
2022-11-13T09:14:03.945Z,62.34
2022-11-13T09:15:03.926Z,58.05
2022-11-13T09:16:03.910Z,62.59
2022-11-13T09:17:04.905Z,62.12
2022-11-13T09:18:04.020Z,62.27
2022-11-13T09:19:04.152Z,57.11
2022-11-13T09:20:06.091Z,61.97
2022-11-13T09:21:03.887Z,64.16
2022-11-13T09:22:03.875Z,68.35
2022-11-13T09:23:03.869Z,63.65
2022-11-13T09:24:03.857Z,62.29
2022-11-13T09:25:03.844Z,61.54
2022-11-13T09:26:03.853Z,62.76
2022-11-13T09:27:03.829Z,58.66
2022-11-13T09:28:03.980Z,62.29
2022-11-13T09:29:03.807Z,63.68
2022-11-13T09:30:03.804Z,63.08
2022-11-13T09:31:03.794Z,61.11
2022-11-13T09:32:03.790Z,63.76
2022-11-13T09:33:03.793Z,58.47
2022-11-13T09:34:03.769Z,60.52
2022-11-13T09:35:03.764Z,61.79
2022-11-13T09:36:03.766Z,63.27
2022-11-13T09:37:03.835Z,57.87
2022-11-13T09:38:09.448Z,63.73
2022-11-13T09:39:05.747Z,61.08
2022-11-13T09:40:03.736Z,59.57
2022-11-13T09:41:03.713Z,63.90
2022-11-13T09:42:03.719Z,63.44
2022-11-13T09:43:03.706Z,61.63
2022-11-13T09:44:03.827Z,63.24
2022-11-13T09:45:03.690Z,62.26
2022-11-13T09:46:03.704Z,63.60
2022-11-13T09:47:03.733Z,64.75
2022-11-13T09:48:04.454Z,61.59
2022-11-13T09:49:03.658Z,62.16
2022-11-13T09:50:03.647Z,64.08
2022-11-13T09:51:03.678Z,64.88
2022-11-13T09:52:06.562Z,64.29
2022-11-13T09:53:04.688Z,64.35
2022-11-13T09:54:03.641Z,62.41
2022-11-13T09:55:03.606Z,63.45
2022-11-13T09:56:03.603Z,61.52
2022-11-13T09:57:03.650Z,62.55
2022-11-13T09:58:03.582Z,62.97
2022-11-13T09:59:04.418Z,64.15
2022-11-13T10:00:03.669Z,65.23
2022-11-13T10:01:03.599Z,63.07
2022-11-13T10:02:03.548Z,70.25
2022-11-13T10:03:04.549Z,66.33
2022-11-13T10:04:04.527Z,65.49
2022-11-13T10:05:04.531Z,65.11
2022-11-13T10:06:03.556Z,61.13
2022-11-13T10:07:03.614Z,62.28
2022-11-13T10:08:04.875Z,63.65
2022-11-13T10:09:03.579Z,62.81
2022-11-13T10:10:03.506Z,61.17
2022-11-13T10:11:03.500Z,61.37
2022-11-13T10:12:03.497Z,64.32
2022-11-13T10:13:04.474Z,64.57
2022-11-13T10:14:03.477Z,62.90
2022-11-13T10:15:03.462Z,60.09
2022-11-13T10:16:03.560Z,68.37
2022-11-13T10:17:03.445Z,64.63
2022-11-13T10:18:03.433Z,63.18
2022-11-13T10:19:04.379Z,62.15
2022-11-13T10:20:03.428Z,65.35
2022-11-13T10:21:08.257Z,65.34
2022-11-13T10:22:31.775Z,63.55
2022-11-13T10:23:05.393Z,63.84
2022-11-13T10:24:03.390Z,62.04
2022-11-13T10:25:03.961Z,64.63
2022-11-13T10:26:03.370Z,65.79
2022-11-13T10:27:03.371Z,63.18
2022-11-13T10:28:16.170Z,64.38
2022-11-13T10:29:05.380Z,63.01
2022-11-13T10:30:03.365Z,63.96
2022-11-13T10:31:03.351Z,62.34
2022-11-13T10:32:03.416Z,64.63
2022-11-13T10:33:03.313Z,65.25
2022-11-13T10:34:03.312Z,66.60
2022-11-13T10:35:03.303Z,63.59
2022-11-13T10:36:03.296Z,64.36
2022-11-13T10:37:03.291Z,62.90
2022-11-13T10:38:07.866Z,64.28
2022-11-13T10:39:05.274Z,62.67
2022-11-13T10:40:05.880Z,63.31
2022-11-13T10:41:03.247Z,63.81
2022-11-13T10:42:03.249Z,63.86
2022-11-13T10:43:03.254Z,61.81
2022-11-13T10:44:03.224Z,64.04
2022-11-13T10:45:05.895Z,62.77
2022-11-13T10:46:04.212Z,63.63
2022-11-13T10:47:03.214Z,65.96
2022-11-13T10:48:05.053Z,66.56
2022-11-13T10:49:04.530Z,61.75
2022-11-13T10:50:03.287Z,63.46
2022-11-13T10:51:03.954Z,65.86
2022-11-13T10:52:06.972Z,66.10
2022-11-13T10:53:04.189Z,64.07
2022-11-13T10:54:03.163Z,64.30
2022-11-13T10:55:03.216Z,64.23
2022-11-13T10:56:03.145Z,65.64
2022-11-13T10:57:03.152Z,63.71
2022-11-13T10:58:03.128Z,62.97
2022-11-13T10:59:03.108Z,64.93
2022-11-13T11:00:03.108Z,64.60
2022-11-13T11:01:03.129Z,63.22
2022-11-13T11:02:03.101Z,64.07
2022-11-13T11:03:03.078Z,61.54
2022-11-13T11:04:03.978Z,65.35
2022-11-13T11:05:03.063Z,63.53
2022-11-13T11:06:03.049Z,61.45
2022-11-13T11:07:19.662Z,60.80
2022-11-13T11:08:05.944Z,63.58
2022-11-13T11:09:03.026Z,65.86
2022-11-13T11:10:03.019Z,62.44
2022-11-13T11:11:03.031Z,63.06
2022-11-13T11:12:03.012Z,65.48
2022-11-13T11:13:03.023Z,64.30
2022-11-13T11:14:02.989Z,63.58
2022-11-13T11:15:02.992Z,63.36
2022-11-13T11:16:02.965Z,61.95
2022-11-13T11:17:02.964Z,64.27
2022-11-13T11:18:03.467Z,62.07
2022-11-13T11:19:02.952Z,65.71
2022-11-13T11:20:03.559Z,68.91
2022-11-13T11:21:02.933Z,64.26
2022-11-13T11:22:02.924Z,64.05
2022-11-13T11:23:02.923Z,64.09
2022-11-13T11:24:02.916Z,62.42
2022-11-13T11:25:02.904Z,63.61
2022-11-13T11:26:02.895Z,63.22
2022-11-13T11:27:02.882Z,63.50
2022-11-13T11:28:02.880Z,62.27
2022-11-13T11:29:02.874Z,63.09
2022-11-13T11:30:02.869Z,61.14
2022-11-13T11:31:02.858Z,60.75
2022-11-13T11:32:04.390Z,63.15
2022-11-13T11:33:02.852Z,62.35
2022-11-13T11:34:02.826Z,62.17
2022-11-13T11:35:02.825Z,68.36
2022-11-13T11:36:02.919Z,64.47
2022-11-13T11:37:02.834Z,65.13
2022-11-13T11:38:02.798Z,62.71
2022-11-13T11:39:03.397Z,61.55
2022-11-13T11:40:02.782Z,63.05
2022-11-13T11:41:02.804Z,65.10
2022-11-13T11:42:02.767Z,63.52
2022-11-13T11:43:02.801Z,61.45
2022-11-13T11:44:02.747Z,64.60
2022-11-13T11:45:02.756Z,64.66
2022-11-13T11:46:02.743Z,61.45
2022-11-13T11:47:02.766Z,62.71
2022-11-13T11:48:02.717Z,63.72
2022-11-13T11:49:02.709Z,62.32
2022-11-13T11:50:02.737Z,63.43
2022-11-13T11:51:02.697Z,64.43
2022-11-13T11:52:02.792Z,66.85
2022-11-13T11:53:02.685Z,65.35
2022-11-13T11:54:02.683Z,67.94
2022-11-13T11:55:02.896Z,65.08
2022-11-13T11:56:02.646Z,63.39
2022-11-13T11:57:02.643Z,64.97
2022-11-13T11:58:02.635Z,62.75
2022-11-13T11:59:02.648Z,65.91
2022-11-13T12:00:02.636Z,64.54
2022-11-13T12:01:02.606Z,64.30
2022-11-13T12:02:02.603Z,65.88
2022-11-13T12:03:02.600Z,65.99
2022-11-13T12:04:02.596Z,63.83
2022-11-13T12:05:02.700Z,66.76
2022-11-13T12:06:02.574Z,65.20
2022-11-13T12:07:02.613Z,63.29
2022-11-13T12:08:02.651Z,65.05
2022-11-13T12:09:02.556Z,63.39
2022-11-13T12:10:02.541Z,61.49
2022-11-13T12:11:02.541Z,65.78
2022-11-13T12:12:02.533Z,64.33
2022-11-13T12:13:02.495Z,62.57
2022-11-13T12:14:03.522Z,64.27
2022-11-13T12:15:02.516Z,63.91
2022-11-13T12:16:02.511Z,62.99
2022-11-13T12:17:02.691Z,62.97
2022-11-13T12:18:02.469Z,62.96
2022-11-13T12:19:02.474Z,62.28
2022-11-13T12:20:02.464Z,65.92
2022-11-13T12:21:02.459Z,63.22
2022-11-13T12:22:03.399Z,64.06
2022-11-13T12:23:02.451Z,63.51
2022-11-13T12:24:02.529Z,63.72
2022-11-13T12:25:02.437Z,65.89
2022-11-13T12:26:02.427Z,63.97
2022-11-13T12:27:02.412Z,63.35
2022-11-13T12:28:02.419Z,62.40
2022-11-13T12:29:02.402Z,66.06
2022-11-13T12:30:02.392Z,62.83
2022-11-13T12:31:02.404Z,61.86
2022-11-13T12:32:02.376Z,64.70
2022-11-13T12:33:02.362Z,61.15
2022-11-13T12:34:02.365Z,65.57
2022-11-13T12:35:02.362Z,65.31
2022-11-13T12:36:02.367Z,64.56
2022-11-13T12:37:02.329Z,62.94
2022-11-13T12:38:02.321Z,64.80
2022-11-13T12:39:02.343Z,62.83
2022-11-13T12:40:02.401Z,62.51
2022-11-13T12:41:02.309Z,64.21
2022-11-13T12:42:02.290Z,63.30
2022-11-13T12:43:02.282Z,62.45
2022-11-13T12:44:02.909Z,63.20
2022-11-13T12:45:02.288Z,63.45
2022-11-13T12:46:02.269Z,63.87
2022-11-13T12:47:02.272Z,63.05
2022-11-13T12:48:02.248Z,64.26
2022-11-13T12:49:02.242Z,62.84
2022-11-13T12:50:02.245Z,63.01
2022-11-13T12:51:02.225Z,62.92
2022-11-13T12:52:02.223Z,63.50
2022-11-13T12:53:02.212Z,64.45
2022-11-13T12:54:02.211Z,62.00